Time;durP1;ratioP1;P1;durP2;ratioP2;P2;SDS_P1;SDS_P2;PMS_P1;PMS_P2;Temp;Humidity;BMP_temperature;BMP_pressure;BME280_temperature;BME280_humidity;BME280_pressure;Samples;Min_cycle;Max_cycle;Signal;HPM_P1;HPM_P2
2023/01/17 00:02:18;;;;;;;1.52;0.60;;;3.10;99.90;;;;;;5009835;28;20045;-70
2023/01/17 00:10:17;;;;;;;1.70;0.50;;;3.00;99.90;;;;;;5013599;28;20058;-70
2023/01/17 00:12:51;;;;;;;4.30;0.70;;;2.90;99.90;;;;;;5012474;28;20053;-70
2023/01/17 00:15:22;;;;;;;7.07;0.75;;;2.90;99.90;;;;;;5007841;28;20513;-70
2023/01/17 00:17:49;;;;;;;1.85;0.60;;;2.90;99.90;;;;;;5010852;28;20053;-70
2023/01/17 00:26:04;;;;;;;4.97;0.80;;;2.90;99.90;;;;;;5013293;28;20038;-70
2023/01/17 01:35:46;;;;;;;10.52;1.45;;;3.10;99.90;;;;;;5015594;28;20049;-69
2023/01/17 01:38:12;;;;;;;6.83;1.70;;;3.10;99.90;;;;;;5017025;28;20487;-69
2023/01/17 01:40:42;;;;;;;5.13;0.80;;;3.10;99.90;;;;;;5013228;28;20069;-69
2023/01/17 01:43:11;;;;;;;5.55;1.45;;;3.00;99.90;;;;;;5014861;28;20045;-72
2023/01/17 01:45:37;;;;;;;2.17;0.75;;;2.90;99.90;;;;;;5013973;28;20038;-70
2023/01/17 01:48:20;;;;;;;4.93;0.98;;;2.90;99.90;;;;;;5013006;28;20038;-70
2023/01/17 01:50:48;;;;;;;5.90;1.00;;;2.90;99.90;;;;;;5015606;28;20402;-69
2023/01/17 01:53:14;;;;;;;;;;;2.90;99.90;;;;;;5017479;28;20153;-69
2023/01/17 01:55:42;;;;;;;4.03;0.95;;;2.80;99.90;;;;;;5016269;28;19957;-69
2023/01/17 01:58:12;;;;;;;11.30;1.50;;;2.80;99.90;;;;;;5018258;28;20400;-69
2023/01/17 02:00:39;;;;;;;9.77;1.33;;;2.80;99.90;;;;;;5015967;28;20137;-70
2023/01/17 02:03:14;;;;;;;11.50;1.60;;;2.80;99.90;;;;;;5017297;28;20450;-69
2023/01/17 02:05:42;;;;;;;9.32;1.52;;;2.80;99.90;;;;;;5014535;28;20054;-70
2023/01/17 02:08:11;;;;;;;6.15;1.40;;;2.80;99.90;;;;;;5017746;28;20033;-70
2023/01/17 02:10:38;;;;;;;13.25;1.40;;;2.90;99.90;;;;;;5016318;28;20304;-69
2023/01/17 02:13:07;;;;;;;9.98;1.90;;;2.80;99.90;;;;;;5016327;28;20052;-69
2023/01/17 02:15:51;;;;;;;;;;;2.90;99.90;;;;;;5014472;28;20045;-69
2023/01/17 02:18:22;;;;;;;11.68;1.77;;;2.90;99.90;;;;;;5015970;28;19925;-69
2023/01/17 02:20:57;;;;;;;15.30;2.03;;;2.90;99.90;;;;;;5015724;28;20056;-69
2023/01/17 02:23:53;;;;;;;12.43;1.55;;;2.90;99.90;;;;;;5016025;28;20488;-69
2023/01/17 02:26:56;;;;;;;12.75;1.88;;;2.90;99.90;;;;;;5011093;28;20045;-70
2023/01/17 02:29:39;;;;;;;10.57;1.67;;;3.00;99.90;;;;;;5013316;28;20581;-69
2023/01/17 02:32:27;;;;;;;10.32;1.83;;;3.00;99.90;;;;;;5009572;28;20125;-70
2023/01/17 02:35:17;;;;;;;5.78;1.65;;;3.00;99.90;;;;;;5012685;28;20061;-69
2023/01/17 02:37:54;;;;;;;6.15;1.48;;;3.00;99.90;;;;;;5010853;28;20038;-69
2023/01/17 02:40:34;;;;;;;4.55;1.17;;;3.10;99.90;;;;;;5009271;28;20049;-69
2023/01/17 02:43:06;;;;;;;5.57;1.33;;;3.10;99.90;;;;;;5010533;28;20493;-69
2023/01/17 02:45:31;;;;;;;16.60;1.95;;;3.20;99.90;;;;;;5008801;28;21011;-70
2023/01/17 02:47:57;;;;;;;11.48;1.55;;;3.20;99.90;;;;;;5011644;28;20044;-69
2023/01/17 02:50:30;;;;;;;10.93;1.83;;;3.20;99.90;;;;;;5010536;28;20693;-69
2023/01/17 02:53:10;;;;;;;10.43;1.95;;;3.20;99.90;;;;;;5013280;28;20046;-69
2023/01/17 02:55:55;;;;;;;6.68;1.17;;;3.20;99.90;;;;;;5010569;28;20045;-69
2023/01/17 02:58:29;;;;;;;7.53;1.42;;;3.20;99.90;;;;;;5009379;28;20480;-69
2023/01/17 03:01:20;;;;;;;8.82;1.00;;;3.10;99.90;;;;;;5006991;28;20053;-69
2023/01/17 03:04:02;;;;;;;9.60;1.42;;;3.10;99.90;;;;;;5006230;28;20491;-69
2023/01/17 03:06:38;;;;;;;10.35;1.75;;;3.20;99.90;;;;;;5011289;28;20042;-69
2023/01/17 03:09:04;;;;;;;10.35;1.65;;;3.20;99.90;;;;;;5007364;28;20512;-69
2023/01/17 03:11:29;;;;;;;13.18;1.85;;;3.20;99.90;;;;;;5009119;28;20161;-69
2023/01/17 03:13:56;;;;;;;12.57;1.60;;;3.10;99.90;;;;;;5012417;28;20065;-69
2023/01/17 03:16:26;;;;;;;10.52;1.38;;;3.10;99.90;;;;;;5010120;28;20077;-69
2023/01/17 03:18:52;;;;;;;11.75;1.52;;;3.00;99.90;;;;;;5011424;28;20033;-68
2023/01/17 03:21:18;;;;;;;14.30;1.92;;;3.00;99.90;;;;;;5013207;28;20107;-69
2023/01/17 03:23:44;;;;;;;8.60;1.33;;;3.00;99.90;;;;;;5012986;28;20085;-68
2023/01/17 03:26:10;;;;;;;7.32;1.27;;;2.90;99.90;;;;;;5011477;28;20463;-68
2023/01/17 03:28:35;;;;;;;9.85;1.50;;;2.90;99.90;;;;;;5012854;28;20030;-69
2023/01/17 03:31:01;;;;;;;12.15;1.75;;;2.80;99.90;;;;;;5012085;28;20076;-70
2023/01/17 03:33:26;;;;;;;18.00;1.67;;;2.80;99.90;;;;;;5012118;28;20041;-69
2023/01/17 03:35:53;;;;;;;9.40;1.30;;;2.80;99.90;;;;;;5010394;28;20046;-69
2023/01/17 03:38:19;;;;;;;12.27;1.67;;;2.90;99.90;;;;;;5002241;28;20042;-69
2023/01/17 03:40:45;;;;;;;7.15;1.40;;;2.80;99.90;;;;;;5007216;28;20542;-69
2023/01/17 03:43:11;;;;;;;5.25;1.17;;;2.90;99.90;;;;;;5011799;28;20136;-69
2023/01/17 03:45:36;;;;;;;10.63;1.20;;;2.90;99.90;;;;;;5010492;28;20034;-69
2023/01/17 03:48:02;;;;;;;6.28;1.13;;;2.80;99.90;;;;;;5012322;28;20056;-70
2023/01/17 03:50:28;;;;;;;11.98;2.17;;;2.80;99.90;;;;;;5008868;28;20053;-69
2023/01/17 03:52:53;;;;;;;8.88;1.55;;;2.80;99.90;;;;;;5008555;28;20034;-69
2023/01/17 03:55:19;;;;;;;10.60;1.90;;;2.70;99.90;;;;;;5011363;28;20034;-69
2023/01/17 03:57:45;;;;;;;14.55;2.13;;;2.70;99.90;;;;;;5010659;28;20048;-69
2023/01/17 04:00:11;;;;;;;7.60;1.60;;;2.60;99.90;;;;;;5010605;28;20073;-69
2023/01/17 04:02:36;;;;;;;8.98;1.58;;;2.70;99.90;;;;;;5011906;28;20394;-69
2023/01/17 04:05:02;;;;;;;14.02;1.80;;;2.60;99.90;;;;;;5012890;28;20038;-69
2023/01/17 04:07:28;;;;;;;7.15;1.25;;;2.60;99.90;;;;;;5010736;28;20046;-69
2023/01/17 04:09:53;;;;;;;11.52;1.83;;;2.60;99.90;;;;;;5010730;28;20045;-69
2023/01/17 04:12:19;;;;;;;8.55;1.48;;;2.50;99.90;;;;;;5011408;28;20078;-69
2023/01/17 04:14:45;;;;;;;16.38;2.10;;;2.50;99.90;;;;;;5012829;28;20045;-69
2023/01/17 04:17:15;;;;;;;4.95;1.35;;;2.50;99.90;;;;;;5011798;28;20034;-69
2023/01/17 04:19:41;;;;;;;18.23;2.28;;;2.50;99.90;;;;;;5011959;28;20368;-69
2023/01/17 04:22:07;;;;;;;7.28;1.25;;;2.50;99.90;;;;;;5010163;28;20053;-69
2023/01/17 04:24:32;;;;;;;10.43;2.13;;;2.40;99.90;;;;;;5010580;28;20150;-69
2023/01/17 04:26:58;;;;;;;12.25;1.48;;;2.40;99.90;;;;;;5010504;28;20042;-68
2023/01/17 04:29:24;;;;;;;10.18;1.90;;;2.30;99.90;;;;;;5012745;28;20045;-69
2023/01/17 04:31:49;;;;;;;6.88;1.60;;;2.30;99.90;;;;;;5010968;28;20057;-68
2023/01/17 04:34:15;;;;;;;13.32;1.67;;;2.30;99.90;;;;;;5010407;28;20041;-68
2023/01/17 04:36:41;;;;;;;11.75;1.35;;;2.30;99.90;;;;;;5012510;28;20483;-68
2023/01/17 04:39:06;;;;;;;8.02;1.58;;;2.20;99.90;;;;;;5011537;28;20041;-68
2023/01/17 04:41:32;;;;;;;10.00;2.03;;;2.20;99.90;;;;;;5011836;28;20053;-68
2023/01/17 04:43:58;;;;;;;10.43;1.63;;;2.10;99.90;;;;;;5012447;28;20131;-68
2023/01/17 04:46:23;;;;;;;15.02;1.65;;;2.10;99.90;;;;;;5010892;28;20073;-68
2023/01/17 04:48:49;;;;;;;7.85;1.42;;;2.10;99.90;;;;;;5012027;28;20038;-68
2023/01/17 04:51:15;;;;;;;12.30;1.70;;;2.00;99.90;;;;;;5011676;28;20139;-68
2023/01/17 04:53:40;;;;;;;14.40;1.98;;;2.00;99.90;;;;;;5010567;28;20042;-68
2023/01/17 04:56:06;;;;;;;6.57;1.40;;;2.00;99.90;;;;;;5009613;28;20172;-68
2023/01/17 04:58:32;;;;;;;11.88;1.30;;;2.00;99.90;;;;;;5011214;28;20030;-68
2023/01/17 05:01:06;;;;;;;12.10;1.90;;;1.90;99.90;;;;;;5009521;28;20058;-69
2023/01/17 05:03:32;;;;;;;11.50;1.52;;;1.90;99.90;;;;;;5008369;28;20179;-68
2023/01/17 05:05:58;;;;;;;14.32;1.75;;;1.90;99.90;;;;;;5011673;28;20046;-68
2023/01/17 05:08:24;;;;;;;10.95;1.67;;;1.90;99.90;;;;;;5011612;28;20068;-69
2023/01/17 05:10:50;;;;;;;12.27;1.67;;;1.80;99.90;;;;;;5009358;28;20487;-68
2023/01/17 05:13:16;;;;;;;19.00;1.95;;;1.80;99.90;;;;;;5008436;28;20038;-68
2023/01/17 05:15:42;;;;;;;10.35;1.55;;;1.80;99.90;;;;;;5006678;28;20042;-68
2023/01/17 05:18:15;;;;;;;9.07;1.55;;;1.80;99.90;;;;;;5008742;28;20056;-68
2023/01/17 05:20:41;;;;;;;9.35;0.98;;;1.80;99.90;;;;;;5011086;28;20038;-68
2023/01/17 05:23:07;;;;;;;5.18;1.20;;;1.80;99.90;;;;;;5008734;28;20049;-68
2023/01/17 05:25:33;;;;;;;11.68;2.28;;;1.90;99.90;;;;;;5009797;28;20038;-68
2023/01/17 05:27:59;;;;;;;6.70;1.63;;;1.90;99.90;;;;;;5010968;28;20042;-68
2023/01/17 05:30:25;;;;;;;10.63;1.17;;;1.80;99.90;;;;;;5008290;28;20081;-68
2023/01/17 05:32:54;;;;;;;9.35;1.65;;;1.80;99.90;;;;;;5011325;28;20038;-67
2023/01/17 05:35:23;;;;;;;9.07;1.92;;;1.70;99.90;;;;;;5010732;28;20084;-68
2023/01/17 05:37:50;;;;;;;11.80;1.40;;;1.60;99.90;;;;;;5013179;28;20046;-68
2023/01/17 05:40:16;;;;;;;4.53;1.17;;;1.60;99.90;;;;;;5010769;28;20131;-68
2023/01/17 05:42:49;;;;;;;3.22;1.20;;;1.60;99.90;;;;;;5011101;28;20038;-69
2023/01/17 05:45:15;;;;;;;8.82;1.10;;;1.50;99.90;;;;;;5003563;28;20107;-69
2023/01/17 05:47:50;;;;;;;4.82;1.30;;;1.50;99.90;;;;;;5010774;28;20034;-68
2023/01/17 05:50:20;;;;;;;6.43;1.15;;;1.50;99.90;;;;;;5011311;28;20120;-68
2023/01/17 05:52:52;;;;;;;5.88;1.30;;;1.50;99.90;;;;;;5009487;28;20046;-69
2023/01/17 05:55:18;;;;;;;6.55;1.15;;;1.40;99.90;;;;;;5007721;28;20034;-68
2023/01/17 05:57:44;;;;;;;4.50;0.85;;;1.40;99.90;;;;;;5010941;28;20441;-69
2023/01/17 06:00:10;;;;;;;9.43;1.48;;;1.30;99.90;;;;;;5009525;28;20038;-68
2023/01/17 06:02:35;;;;;;;11.43;1.45;;;1.30;99.90;;;;;;5014748;28;20100;-69
2023/01/17 06:05:01;;;;;;;6.38;1.20;;;1.30;99.90;;;;;;5015043;28;20066;-69
2023/01/17 06:07:27;;;;;;;10.20;1.58;;;1.30;99.90;;;;;;5012192;28;20057;-69
2023/01/17 06:09:52;;;;;;;5.05;1.33;;;1.30;99.90;;;;;;5014717;28;20057;-69
2023/01/17 06:12:18;;;;;;;9.93;1.25;;;1.30;99.90;;;;;;5015924;28;20034;-69
2023/01/17 06:14:43;;;;;;;9.30;1.33;;;1.20;99.90;;;;;;5013601;28;20065;-69
2023/01/17 06:17:09;;;;;;;8.85;1.45;;;1.20;99.90;;;;;;5011214;28;20073;-67
2023/01/17 06:19:35;;;;;;;11.05;2.47;;;1.20;99.90;;;;;;5014705;28;20088;-69
2023/01/17 06:22:02;;;;;;;12.40;2.10;;;1.20;99.90;;;;;;5015150;28;20065;-69
2023/01/17 06:24:29;;;;;;;6.30;2.00;;;1.10;99.90;;;;;;5013067;28;20057;-69
2023/01/17 06:26:55;;;;;;;11.23;2.22;;;1.10;99.90;;;;;;5012873;28;20108;-69
2023/01/17 06:29:20;;;;;;;11.27;2.20;;;1.10;99.90;;;;;;5010355;28;20038;-69
2023/01/17 06:31:46;;;;;;;18.02;2.47;;;1.20;99.90;;;;;;5010428;28;20044;-68
2023/01/17 06:34:11;;;;;;;9.43;2.30;;;1.10;99.90;;;;;;5014179;28;20423;-68
2023/01/17 06:36:37;;;;;;;8.23;1.60;;;1.10;99.90;;;;;;5006656;28;20112;-68
2023/01/17 06:39:03;;;;;;;5.65;1.63;;;1.10;99.90;;;;;;5014839;28;20061;-68
2023/01/17 06:41:28;;;;;;;12.40;1.63;;;1.10;99.90;;;;;;5014086;28;20046;-67
2023/01/17 06:43:54;;;;;;;5.90;1.40;;;1.00;99.90;;;;;;5009867;28;20427;-68
2023/01/17 06:46:21;;;;;;;17.63;1.65;;;1.00;99.90;;;;;;5010085;28;20438;-67
2023/01/17 06:48:47;;;;;;;8.95;1.38;;;0.90;99.90;;;;;;5013468;28;20042;-68
2023/01/17 06:51:14;;;;;;;9.30;1.63;;;0.90;99.90;;;;;;5012586;28;20121;-68
2023/01/17 06:53:40;;;;;;;8.57;1.33;;;0.90;99.90;;;;;;5009895;28;20511;-68
2023/01/17 06:56:06;;;;;;;8.75;1.48;;;0.80;99.90;;;;;;5009003;28;20045;-69
2023/01/17 06:58:31;;;;;;;9.18;1.52;;;0.80;99.90;;;;;;5011696;28;20075;-68
2023/01/17 07:00:57;;;;;;;9.73;2.03;;;0.80;99.90;;;;;;5012025;28;20046;-67
2023/01/17 07:03:25;;;;;;;9.88;1.45;;;0.80;99.90;;;;;;5012664;28;20399;-67
2023/01/17 07:05:50;;;;;;;13.93;2.07;;;0.80;99.90;;;;;;5010082;28;20058;-68
2023/01/17 07:08:17;;;;;;;9.77;1.90;;;0.70;99.90;;;;;;5009969;28;20414;-68
2023/01/17 07:10:44;;;;;;;10.32;1.80;;;0.80;99.90;;;;;;5003766;28;20042;-68
2023/01/17 07:13:10;;;;;;;9.68;1.63;;;0.80;99.90;;;;;;5013130;28;20372;-66
2023/01/17 07:15:36;;;;;;;5.97;1.33;;;0.80;99.90;;;;;;5006021;28;20180;-65
2023/01/17 07:18:03;;;;;;;12.77;1.50;;;0.70;99.90;;;;;;5011263;28;20428;-68
2023/01/17 07:20:29;;;;;;;6.05;1.33;;;0.70;99.90;;;;;;5012673;28;20045;-68
2023/01/17 07:22:55;;;;;;;7.38;1.20;;;0.70;99.90;;;;;;5013313;28;20132;-68
2023/01/17 07:25:21;;;;;;;6.95;1.60;;;0.70;99.90;;;;;;5009819;28;20176;-68
2023/01/17 07:27:47;;;;;;;7.43;1.38;;;0.60;99.90;;;;;;5008027;28;20092;-68
2023/01/17 07:30:13;;;;;;;7.22;1.65;;;0.60;99.90;;;;;;5007328;28;20049;-69
2023/01/17 07:32:38;;;;;;;7.45;1.38;;;0.60;99.90;;;;;;5006288;28;20395;-68
2023/01/17 07:35:05;;;;;;;6.65;1.70;;;0.70;99.90;;;;;;5012154;28;20410;-68
2023/01/17 07:37:30;;;;;;;3.95;1.80;;;0.70;99.90;;;;;;5010415;28;20117;-68
2023/01/17 07:39:56;;;;;;;5.10;1.75;;;0.70;99.90;;;;;;5016807;28;20048;-69
2023/01/17 07:42:22;;;;;;;8.70;1.35;;;0.70;99.90;;;;;;5009733;28;20088;-68
2023/01/17 07:44:51;;;;;;;17.20;2.05;;;0.70;99.90;;;;;;5006867;28;20093;-68
2023/01/17 07:47:18;;;;;;;5.20;1.52;;;0.70;99.90;;;;;;5007345;28;20037;-68
2023/01/17 07:49:44;;;;;;;12.63;1.52;;;0.70;99.90;;;;;;5012156;28;20426;-69
2023/01/17 07:52:09;;;;;;;7.70;1.80;;;0.70;99.90;;;;;;5011429;28;20077;-68
2023/01/17 07:54:35;;;;;;;4.57;1.45;;;0.70;99.90;;;;;;5012059;28;20045;-69
2023/01/17 07:57:01;;;;;;;2.33;1.10;;;0.80;99.90;;;;;;5006159;28;20041;-69
2023/01/17 07:59:27;;;;;;;6.65;1.50;;;0.70;99.90;;;;;;5009777;28;20092;-69
2023/01/17 08:01:53;;;;;;;8.70;1.88;;;0.70;99.90;;;;;;5013186;28;20046;-69
2023/01/17 08:04:18;;;;;;;6.28;2.25;;;0.70;99.90;;;;;;5011952;28;20049;-68
2023/01/17 08:06:47;;;;;;;11.73;2.05;;;0.70;99.90;;;;;;5013281;28;20086;-69
2023/01/17 08:09:13;;;;;;;10.10;2.15;;;0.60;99.90;;;;;;5010874;28;20081;-69
2023/01/17 08:11:38;;;;;;;9.73;2.30;;;0.70;99.90;;;;;;5012597;28;20085;-68
2023/01/17 08:14:04;;;;;;;5.05;2.10;;;0.60;99.90;;;;;;5013507;28;20045;-68
2023/01/17 08:16:32;;;;;;;6.97;2.10;;;0.70;99.90;;;;;;5012989;28;20080;-69
2023/01/17 08:18:57;;;;;;;10.75;2.35;;;0.70;99.90;;;;;;5013160;28;20046;-69
2023/01/17 08:21:23;;;;;;;8.63;2.30;;;0.60;99.90;;;;;;5011776;28;20046;-68
2023/01/17 08:23:51;;;;;;;10.15;2.10;;;0.70;99.90;;;;;;5012962;28;20049;-68
2023/01/17 08:26:21;;;;;;;7.95;2.17;;;0.70;99.90;;;;;;5012012;28;20042;-69
2023/01/17 08:28:48;;;;;;;8.90;2.50;;;0.70;99.90;;;;;;5012001;28;20046;-69
2023/01/17 08:31:16;;;;;;;7.53;2.00;;;0.70;99.90;;;;;;5012457;28;20046;-69
2023/01/17 08:33:41;;;;;;;8.75;1.75;;;0.90;99.90;;;;;;5012972;28;20052;-68
2023/01/17 08:36:07;;;;;;;7.45;1.63;;;0.90;99.90;;;;;;5013028;28;20041;-69
2023/01/17 08:38:33;;;;;;;11.68;1.98;;;1.10;99.90;;;;;;5012659;28;20422;-69
2023/01/17 08:41:01;;;;;;;8.23;1.80;;;1.10;99.90;;;;;;5012359;28;20049;-69
2023/01/17 08:43:27;;;;;;;4.22;1.70;;;1.20;99.90;;;;;;5012796;28;20030;-69
2023/01/17 08:45:54;;;;;;;7.60;1.77;;;1.20;99.90;;;;;;5013252;28;20108;-69
2023/01/17 08:48:21;;;;;;;10.18;1.83;;;1.30;99.90;;;;;;5012473;28;20407;-68
2023/01/17 08:50:47;;;;;;;10.70;1.75;;;1.30;99.90;;;;;;5013021;28;20045;-68
2023/01/17 08:53:13;;;;;;;6.07;1.50;;;1.30;99.90;;;;;;5011223;28;20048;-68
2023/01/17 08:55:39;;;;;;;8.82;1.30;;;1.40;99.90;;;;;;5012971;28;20398;-68
2023/01/17 08:58:06;;;;;;;8.55;1.65;;;1.50;99.90;;;;;;5012678;28;20076;-68
2023/01/17 09:00:32;;;;;;;7.70;1.35;;;1.60;99.90;;;;;;5012916;28;20081;-68
2023/01/17 09:02:58;;;;;;;5.28;1.63;;;1.80;99.90;;;;;;5012998;28;20465;-69
2023/01/17 09:05:24;;;;;;;7.05;1.65;;;2.00;99.90;;;;;;5010644;28;20136;-68
2023/01/17 09:07:49;;;;;;;9.93;1.63;;;2.20;99.90;;;;;;5012218;28;20099;-69
2023/01/17 09:10:15;;;;;;;8.88;1.30;;;2.20;99.90;;;;;;5011817;28;20047;-68
2023/01/17 09:12:41;;;;;;;5.88;1.70;;;2.30;99.90;;;;;;5010598;28;20041;-68
2023/01/17 09:15:07;;;;;;;10.45;1.50;;;2.40;99.90;;;;;;5013153;28;20502;-68
2023/01/17 09:17:32;;;;;;;5.85;1.20;;;2.50;99.90;;;;;;5012007;28;20049;-68
2023/01/17 09:19:58;;;;;;;6.72;1.20;;;2.60;99.90;;;;;;5012761;28;20125;-68
2023/01/17 09:22:25;;;;;;;11.60;1.58;;;2.50;99.90;;;;;;5013168;28;20064;-68
2023/01/17 09:24:51;;;;;;;8.63;1.50;;;2.60;99.90;;;;;;5011292;28;20132;-68
2023/01/17 09:27:16;;;;;;;7.70;1.20;;;2.70;99.90;;;;;;5012513;28;20515;-68
2023/01/17 09:29:42;;;;;;;6.28;1.50;;;2.70;99.90;;;;;;5012104;28;20042;-69
2023/01/17 09:32:07;;;;;;;9.32;1.55;;;2.80;99.90;;;;;;5011082;28;20077;-68
2023/01/17 09:34:33;;;;;;;4.00;1.60;;;3.00;99.90;;;;;;5014437;28;20426;-68
2023/01/17 09:36:58;;;;;;;9.10;1.50;;;3.20;99.90;;;;;;5010924;28;20046;-68
2023/01/17 09:39:24;;;;;;;6.80;1.58;;;3.40;99.90;;;;;;5022420;28;20474;-68
2023/01/17 09:42:14;;;;;;;4.03;1.63;;;3.70;99.90;;;;;;5016556;28;20038;-68
2023/01/17 09:44:47;;;;;;;5.68;1.38;;;3.80;99.90;;;;;;5015947;28;20060;-68
2023/01/17 09:47:30;;;;;;;5.97;1.42;;;3.70;99.90;;;;;;5016345;28;20034;-68
2023/01/17 09:50:02;;;;;;;6.65;1.40;;;3.70;99.90;;;;;;5015830;28;20045;-68
2023/01/17 09:52:29;;;;;;;2.30;0.85;;;3.80;99.90;;;;;;5016517;28;20117;-68
2023/01/17 09:54:55;;;;;;;2.75;0.80;;;3.80;99.90;;;;;;5014250;28;20057;-68
2023/01/17 09:58:04;;;;;;;1.60;0.60;;;3.70;99.90;;;;;;5011744;28;20030;-68
2023/01/17 10:00:47;;;;;;;4.75;1.25;;;3.70;99.90;;;;;;5014734;28;20069;-68
2023/01/17 10:03:28;;;;;;;0.75;0.40;;;3.90;99.90;;;;;;5014332;28;20050;-68
2023/01/17 10:06:12;;;;;;;0.63;0.35;;;4.00;99.90;;;;;;4996092;28;20081;-69
2023/01/17 10:09:06;;;;;;;1.58;0.40;;;4.10;99.90;;;;;;5014573;28;20406;-68
2023/01/17 10:11:54;;;;;;;2.20;0.50;;;4.10;99.90;;;;;;5013570;28;20049;-69
2023/01/17 10:15:01;;;;;;;0.80;0.40;;;4.30;99.90;;;;;;5015100;28;20038;-69
2023/01/17 10:17:47;;;;;;;1.90;0.47;;;4.30;99.90;;;;;;5014009;28;20037;-69
2023/01/17 10:20:32;;;;;;;3.22;0.90;;;4.60;99.90;;;;;;5015111;28;20120;-69
2023/01/17 10:23:02;;;;;;;1.88;0.63;;;4.90;99.90;;;;;;5008981;28;20042;-68
2023/01/17 10:25:37;;;;;;;1.27;0.60;;;5.00;99.90;;;;;;5015398;28;20587;-67
2023/01/17 10:28:16;;;;;;;0.52;0.30;;;4.80;99.90;;;;;;5014783;28;20081;-68
2023/01/17 10:30:49;;;;;;;1.08;0.45;;;4.60;99.90;;;;;;5013442;28;20435;-68
2023/01/17 10:33:26;;;;;;;2.78;0.52;;;4.30;99.90;;;;;;5013075;28;20049;-68
2023/01/17 10:36:04;;;;;;;1.98;0.63;;;4.20;99.90;;;;;;5013477;28;20104;-67
2023/01/17 10:38:34;;;;;;;6.70;1.38;;;4.00;99.90;;;;;;5004442;28;20121;-67
2023/01/17 10:41:12;;;;;;;4.20;1.00;;;3.80;99.90;;;;;;5013927;28;20054;-67
2023/01/17 10:43:47;;;;;;;2.30;0.43;;;3.60;99.90;;;;;;5014581;28;20065;-68
2023/01/17 10:46:21;;;;;;;5.47;0.90;;;3.50;99.90;;;;;;5015010;28;20460;-68
2023/01/17 10:48:49;;;;;;;1.00;0.57;;;3.50;99.90;;;;;;5014928;28;20129;-68
2023/01/17 10:51:26;;;;;;;3.00;0.80;;;3.50;99.90;;;;;;5014289;28;20065;-68
2023/01/17 10:53:58;;;;;;;0.80;0.40;;;3.50;99.90;;;;;;5013355;28;20049;-68
2023/01/17 10:56:27;;;;;;;2.05;0.47;;;3.50;99.90;;;;;;4997059;28;20051;-68
2023/01/17 10:59:07;;;;;;;1.17;0.57;;;3.50;99.90;;;;;;5014776;28;20049;-68
2023/01/17 11:01:33;;;;;;;3.83;0.45;;;3.50;99.90;;;;;;5007922;28;20038;-68
2023/01/17 11:03:59;;;;;;;3.88;0.90;;;3.50;99.90;;;;;;5012442;28;20391;-68
2023/01/17 11:06:26;;;;;;;2.15;0.60;;;3.40;99.90;;;;;;5012445;28;20046;-68
2023/01/17 11:08:55;;;;;;;4.07;1.20;;;3.40;99.90;;;;;;5012571;28;20057;-69
2023/01/17 11:11:31;;;;;;;4.22;0.90;;;3.30;99.90;;;;;;5014607;28;20057;-68
2023/01/17 11:13:59;;;;;;;4.70;1.23;;;3.20;99.90;;;;;;5013997;28;20491;-69
2023/01/17 11:16:30;;;;;;;3.65;1.10;;;3.10;99.90;;;;;;5014673;28;20041;-68
2023/01/17 11:19:20;;;;;;;2.35;1.13;;;3.10;99.90;;;;;;5014410;28;20060;-69
2023/01/17 11:21:56;;;;;;;4.40;1.40;;;3.10;99.90;;;;;;5014004;28;20499;-69
2023/01/17 11:24:36;;;;;;;4.45;1.02;;;3.00;99.90;;;;;;5011326;28;20038;-69
2023/01/17 11:27:05;;;;;;;5.07;1.27;;;3.00;99.90;;;;;;5013432;28;20042;-68
2023/01/17 11:29:35;;;;;;;3.20;1.27;;;3.00;99.90;;;;;;5014013;28;20046;-67
2023/01/17 11:32:20;;;;;;;2.15;0.90;;;3.10;99.90;;;;;;5012115;28;20388;-67
2023/01/17 11:35:06;;;;;;;4.28;1.20;;;3.00;99.90;;;;;;5012672;28;20088;-68
2023/01/17 11:37:33;;;;;;;5.50;1.60;;;3.10;99.90;;;;;;5013194;28;20046;-68
2023/01/17 11:40:14;;;;;;;5.75;0.98;;;3.10;99.90;;;;;;5013231;28;20050;-67
2023/01/17 11:42:39;;;;;;;7.82;1.23;;;3.10;99.90;;;;;;5014047;28;20133;-67
2023/01/17 11:45:27;;;;;;;7.38;1.48;;;3.10;99.90;;;;;;5009487;28;20124;-67
2023/01/17 11:48:08;;;;;;;9.73;1.50;;;3.20;99.90;;;;;;5012205;28;20442;-68
2023/01/17 11:50:40;;;;;;;5.30;1.50;;;3.10;99.90;;;;;;5009829;28;20042;-68
2023/01/17 11:53:14;;;;;;;6.50;1.60;;;3.20;99.90;;;;;;5012407;28;20487;-68
2023/01/17 11:55:53;;;;;;;4.25;1.30;;;3.20;99.90;;;;;;5011991;28;20057;-67
2023/01/17 11:58:20;;;;;;;9.65;3.03;;;3.20;99.90;;;;;;5010500;28;20562;-67
2023/01/17 12:00:55;;;;;;;6.88;1.50;;;3.20;99.90;;;;;;5010231;28;20042;-68
2023/01/17 12:03:58;;;;;;;8.95;1.40;;;3.20;99.90;;;;;;5010836;28;20053;-68
2023/01/17 12:06:42;;;;;;;3.10;1.30;;;3.30;99.90;;;;;;5012288;28;20130;-67
2023/01/17 12:09:36;;;;;;;5.80;1.42;;;3.40;99.90;;;;;;5010270;28;20049;-67
2023/01/17 12:15:22;;;;;;;6.15;1.60;;;3.40;99.90;;;;;;5008473;28;20049;-67
2023/01/17 12:17:47;;;;;;;11.80;1.42;;;3.40;99.90;;;;;;4994393;28;20042;-67
2023/01/17 12:21:12;;;;;;;7.00;1.52;;;3.40;99.90;;;;;;5001403;28;20095;-66
2023/01/17 12:24:24;;;;;;;7.03;1.33;;;3.50;99.90;;;;;;4939133;29;20055;-68
2023/01/17 12:27:21;;;;;;;8.30;1.67;;;3.50;99.90;;;;;;4933066;29;20130;-68
2023/01/17 12:30:11;;;;;;;6.75;1.45;;;3.50;99.90;;;;;;5002544;28;20406;-69
2023/01/17 12:33:17;;;;;;;7.70;1.42;;;3.60;99.90;;;;;;5012666;28;20807;-69
2023/01/17 12:35:55;;;;;;;5.25;1.30;;;3.50;99.90;;;;;;5008256;28;20164;-69
2023/01/17 12:38:29;;;;;;;8.52;1.50;;;3.50;99.90;;;;;;5001161;28;20069;-69
2023/01/17 12:41:04;;;;;;;10.95;1.98;;;3.50;99.90;;;;;;5012355;28;20515;-69
2023/01/17 12:43:35;;;;;;;3.55;1.10;;;3.50;99.90;;;;;;5012731;28;20057;-69
2023/01/17 12:46:15;;;;;;;5.25;1.27;;;3.50;99.90;;;;;;5013080;28;20046;-68
2023/01/17 12:48:42;;;;;;;7.10;1.30;;;3.50;99.90;;;;;;5011110;28;20068;-67
2023/01/17 12:51:23;;;;;;;4.93;1.25;;;3.50;99.90;;;;;;5008729;28;20054;-67
2023/01/17 12:54:05;;;;;;;4.75;1.20;;;3.60;99.90;;;;;;5014113;28;20072;-67
2023/01/17 12:56:44;;;;;;;4.88;1.20;;;3.60;99.90;;;;;;5020328;28;20042;-67
2023/01/17 12:59:45;;;;;;;3.80;1.20;;;3.70;99.90;;;;;;5009777;28;20041;-67
2023/01/17 13:02:24;;;;;;;6.13;1.35;;;3.70;99.90;;;;;;5014539;28;20156;-68
2023/01/17 13:05:00;;;;;;;8.35;1.40;;;3.80;99.90;;;;;;4998822;28;20042;-68
2023/01/17 13:07:46;;;;;;;4.95;1.45;;;3.80;99.90;;;;;;5012051;28;20383;-67
2023/01/17 13:10:17;;;;;;;9.18;1.65;;;3.90;99.90;;;;;;5006221;28;20100;-67
2023/01/17 13:12:43;;;;;;;4.72;1.20;;;3.90;99.90;;;;;;5007177;28;20129;-67
2023/01/17 13:15:20;;;;;;;6.45;1.08;;;4.00;99.90;;;;;;5006348;28;21462;-67
2023/01/17 13:17:49;;;;;;;7.00;1.50;;;4.00;99.90;;;;;;5005729;28;20074;-68
2023/01/17 13:20:43;;;;;;;5.18;1.00;;;4.00;99.90;;;;;;5009958;28;20076;-67
2023/01/17 13:23:26;;;;;;;4.43;1.10;;;4.00;99.90;;;;;;5006499;28;20103;-67
2023/01/17 13:25:53;;;;;;;7.30;1.50;;;4.00;99.90;;;;;;5013891;28;20045;-68
2023/01/17 13:28:43;;;;;;;6.30;1.50;;;3.90;99.90;;;;;;4995099;28;20030;-68
2023/01/17 13:31:19;;;;;;;8.50;1.33;;;3.90;99.90;;;;;;5009483;28;20434;-68
2023/01/17 13:34:15;;;;;;;5.28;1.00;;;3.90;99.90;;;;;;5007215;28;20042;-68
2023/01/17 13:37:09;;;;;;;4.75;1.08;;;3.80;99.90;;;;;;5010860;28;20081;-68
2023/01/17 13:40:06;;;;;;;4.80;1.20;;;3.70;99.90;;;;;;5010529;28;20105;-68
2023/01/17 13:42:58;;;;;;;6.63;1.20;;;3.60;99.90;;;;;;4977164;28;20209;-68
2023/01/17 13:45:39;;;;;;;4.82;1.20;;;3.60;99.90;;;;;;5019756;28;20114;-68
2023/01/17 13:48:11;;;;;;;3.28;1.15;;;3.60;99.90;;;;;;5012440;28;20042;-68
2023/01/17 13:50:39;;;;;;;2.13;0.80;;;3.50;99.90;;;;;;5011939;28;20134;-67
2023/01/17 13:53:33;;;;;;;6.22;1.30;;;3.50;99.90;;;;;;5009714;28;20321;-67
2023/01/17 13:56:21;;;;;;;6.90;1.30;;;3.40;99.90;;;;;;5009779;28;20042;-67
2023/01/17 13:59:01;;;;;;;3.00;1.40;;;3.30;99.90;;;;;;5004573;28;20129;-67
2023/01/17 14:01:37;;;;;;;5.03;1.40;;;3.30;99.90;;;;;;5008932;28;20050;-68
2023/01/17 14:04:10;;;;;;;4.95;1.13;;;3.20;99.90;;;;;;5010621;28;20540;-68
2023/01/17 14:06:45;;;;;;;3.50;1.20;;;3.70;99.90;;;;;;5008905;28;20563;-68
2023/01/17 14:09:11;;;;;;;5.93;1.20;;;3.20;99.90;;;;;;5011382;28;20038;-68
2023/01/17 14:11:56;;;;;;;7.95;1.20;;;3.20;99.90;;;;;;5006075;28;20069;-68
2023/01/17 14:14:47;;;;;;;9.10;1.38;;;3.20;99.90;;;;;;5010575;28;20180;-69
2023/01/17 14:17:21;;;;;;;4.78;1.20;;;3.30;99.90;;;;;;5010547;28;20077;-69
2023/01/17 14:19:56;;;;;;;2.78;1.08;;;3.40;99.90;;;;;;5012032;28;20045;-68
2023/01/17 14:22:24;;;;;;;6.72;1.20;;;3.40;99.90;;;;;;5014710;28;20113;-69
2023/01/17 14:25:00;;;;;;;5.70;1.95;;;3.40;99.90;;;;;;5011985;28;20050;-69
2023/01/17 14:27:29;;;;;;;5.55;1.10;;;3.40;99.90;;;;;;5018237;28;20041;-68
2023/01/17 14:29:59;;;;;;;9.20;1.30;;;3.40;99.90;;;;;;5011849;28;20042;-68
2023/01/17 14:32:31;;;;;;;4.57;1.13;;;3.40;99.90;;;;;;5013611;28;20080;-68
2023/01/17 14:34:57;;;;;;;3.60;1.30;;;3.30;99.90;;;;;;5014045;28;20041;-69
2023/01/17 14:37:32;;;;;;;7.47;1.13;;;3.30;99.90;;;;;;5011217;28;20100;-69
2023/01/17 14:39:59;;;;;;;7.03;1.30;;;3.20;99.90;;;;;;5006035;28;20491;-69
2023/01/17 14:42:29;;;;;;;4.53;1.50;;;3.30;99.90;;;;;;5011897;28;20030;-69